Time;durP1;ratioP1;P1;durP2;ratioP2;P2;SDS_P1;SDS_P2;PMS_P1;PMS_P2;Temp;Humidity;BMP_temperature;BMP_pressure;BME280_temperature;BME280_humidity;BME280_pressure;Samples;Min_cycle;Max_cycle;Signal;HPM_P1;HPM_P2
2022/05/28 00:01:34;;;;;;;578.17;546.53;;;13.10;99.90;;;13.02;79.35;100018.78;5001944;28;20224;-61
2022/05/28 00:04:04;;;;;;;578.38;546.85;;;13.10;99.90;;;13.01;78.87;100017.91;4973888;28;20555;-61
2022/05/28 00:06:35;;;;;;;558.95;529.67;;;13.00;99.90;;;12.94;79.64;100021.44;4992501;28;20208;-61
2022/05/28 00:09:04;;;;;;;560.60;530.33;;;13.00;99.90;;;12.91;78.81;100013.50;4973463;28;20207;-61
2022/05/28 00:11:37;;;;;;;575.90;543.50;;;12.90;99.90;;;13.00;79.22;100032.06;4985545;28;20228;-62
2022/05/28 00:14:06;;;;;;;559.70;529.08;;;12.90;99.90;;;12.79;80.32;100027.75;4975035;28;20204;-64
2022/05/28 00:16:36;;;;;;;557.22;526.85;;;12.90;99.90;;;12.82;80.67;100048.94;5004217;28;20212;-61
2022/05/28 00:19:05;;;;;;;550.63;520.83;;;12.90;99.90;;;12.83;79.81;100045.41;5010411;28;20235;-61
2022/05/28 00:21:34;;;;;;;569.05;536.10;;;12.90;99.90;;;12.71;80.00;100039.28;4987366;28;20593;-61
2022/05/28 00:24:04;;;;;;;566.58;532.47;;;12.80;99.90;;;12.71;80.13;100053.44;5005537;28;20200;-61
2022/05/28 00:26:32;;;;;;;573.13;537.85;;;12.80;99.90;;;12.47;81.58;100045.63;4975272;28;20203;-61
2022/05/28 00:29:00;;;;;;;562.10;527.88;;;12.70;99.90;;;12.44;81.80;100062.44;4976387;28;20209;-61
2022/05/28 00:31:28;;;;;;;556.40;524.33;;;12.60;99.90;;;12.40;82.84;100078.34;4991456;28;20240;-61
2022/05/28 00:33:56;;;;;;;555.65;521.05;;;12.60;99.90;;;12.22;82.59;100078.44;5005311;28;20208;-61
2022/05/28 00:36:24;;;;;;;548.35;515.15;;;12.60;99.90;;;12.15;83.86;100091.69;5031109;28;20212;-61
2022/05/28 00:38:52;;;;;;;555.05;521.17;;;12.60;99.90;;;12.08;84.16;100094.38;4975010;28;20243;-61
2022/05/28 00:41:20;;;;;;;555.45;521.92;;;12.60;99.90;;;12.18;84.63;100127.91;5000137;28;20681;-61
2022/05/28 00:43:48;;;;;;;546.75;512.83;;;12.50;99.90;;;12.04;85.40;100135.03;4998800;28;20211;-61
2022/05/28 00:46:25;;;;;;;552.63;518.05;;;12.50;99.90;;;12.14;85.95;100155.31;4989842;28;20199;-61
2022/05/28 00:48:58;;;;;;;552.50;517.17;;;12.50;99.90;;;11.87;86.83;100145.63;5018601;28;20207;-61
2022/05/28 00:51:31;;;;;;;542.88;508.20;;;12.50;99.90;;;11.69;88.26;100165.00;5003230;28;20247;-61
2022/05/28 00:54:04;;;;;;;548.38;511.70;;;12.40;99.90;;;11.67;89.14;100190.63;5002743;28;20211;-61
2022/05/28 00:56:32;;;;;;;536.35;499.55;;;12.30;99.90;;;11.43;90.76;100201.19;5000489;28;20209;-61
2022/05/28 00:59:00;;;;;;;542.40;503.70;;;12.10;99.90;;;11.32;90.47;100217.03;4973335;28;20227;-61
2022/05/28 01:01:31;;;;;;;533.85;494.50;;;11.80;99.90;;;11.19;91.06;100232.00;4970195;28;20216;-61
2022/05/28 01:04:33;;;;;;;533.85;494.70;;;11.80;99.90;;;11.31;90.29;100240.88;4989267;28;20216;-61
2022/05/28 01:08:04;;;;;;;513.88;474.30;;;11.50;99.90;;;11.20;90.76;100244.38;4997383;28;20208;-61
2022/05/28 01:11:06;;;;;;;502.83;464.42;;;11.50;99.90;;;11.26;88.94;100255.84;4945950;28;20233;-61
2022/05/28 01:13:44;;;;;;;495.10;456.10;;;11.50;99.90;;;11.17;90.28;100260.22;4914694;28;20729;-61
2022/05/28 01:16:24;;;;;;;503.73;464.45;;;11.60;99.90;;;11.21;90.03;100269.97;4976516;28;20199;-61
2022/05/28 01:19:38;;;;;;;501.67;462.85;;;11.60;99.90;;;11.16;90.12;100273.47;4994473;28;20228;-61
2022/05/28 01:22:53;;;;;;;486.02;447.98;;;11.60;99.90;;;11.20;90.85;100288.47;4980739;28;20199;-61
2022/05/28 01:25:56;;;;;;;480.25;441.35;;;11.60;99.90;;;11.09;90.46;100293.72;5000977;28;20208;-61
2022/05/28 01:28:31;;;;;;;475.45;436.70;;;11.60;99.90;;;11.01;90.35;100286.63;4956987;28;20199;-61
2022/05/28 01:31:00;;;;;;;486.45;447.65;;;11.60;99.90;;;10.82;90.93;100289.19;5005096;28;20231;-61
2022/05/28 01:33:29;;;;;;;487.83;448.77;;;11.50;99.90;;;10.83;90.34;100287.41;4986678;28;20204;-61
2022/05/28 01:35:58;;;;;;;486.77;448.15;;;11.40;99.90;;;11.00;90.73;100306.91;5012005;28;20207;-61
2022/05/28 01:38:27;;;;;;;481.05;443.25;;;11.40;99.90;;;10.84;91.91;100318.28;5022802;28;20829;-61
2022/05/28 01:40:56;;;;;;;488.98;450.10;;;11.30;99.90;;;10.99;90.25;100334.25;4971486;28;20226;-61
2022/05/28 01:43:26;;;;;;;499.00;458.92;;;11.40;99.90;;;10.95;89.20;100326.28;4988416;28;20211;-61
2022/05/28 01:45:56;;;;;;;477.25;439.65;;;11.30;99.90;;;11.00;87.70;100296.31;5001833;28;20207;-61
2022/05/28 01:48:26;;;;;;;481.73;442.92;;;11.30;99.90;;;10.94;87.34;100291.00;4988913;28;20222;-61
2022/05/28 01:50:55;;;;;;;496.13;454.83;;;11.30;99.90;;;10.85;89.02;100298.88;5022248;28;20247;-61
2022/05/28 01:56:12;;;;;;;469.55;430.75;;;11.20;99.90;;;10.70;88.49;100294.41;4975556;28;20207;-61
2022/05/28 01:58:41;;;;;;;465.63;428.10;;;11.20;99.90;;;10.63;89.15;100297.88;4990822;28;20229;-61
2022/05/28 02:01:10;;;;;;;464.65;425.88;;;11.00;99.90;;;10.75;89.00;100308.53;5010633;28;20250;-61
2022/05/28 02:03:42;;;;;;;468.83;429.80;;;11.00;99.90;;;10.77;88.78;100301.50;5006738;28;20216;-61
2022/05/28 02:06:11;;;;;;;460.83;422.80;;;10.90;99.90;;;10.87;88.68;100310.38;4989607;28;20212;-61
2022/05/28 02:08:44;;;;;;;460.75;422.58;;;11.00;99.90;;;10.59;88.71;100296.09;5031944;28;20215;-61
2022/05/28 02:11:21;;;;;;;455.52;418.15;;;10.90;99.90;;;10.90;86.18;100303.34;5011096;28;20231;-61
2022/05/28 02:14:10;;;;;;;446.55;409.30;;;11.00;99.90;;;10.94;85.91;100293.66;5006732;28;20212;-62
2022/05/28 02:17:15;;;;;;;443.38;405.92;;;10.90;99.90;;;10.89;86.33;100290.97;4979192;28;20203;-62
2022/05/28 02:20:08;;;;;;;434.50;398.17;;;10.90;99.90;;;10.85;84.61;100267.16;4979747;28;20242;-61
2022/05/28 02:22:58;;;;;;;426.42;392.02;;;10.80;99.90;;;10.89;84.05;100259.22;4974970;28;20243;-62
2022/05/28 02:25:55;;;;;;;454.85;418.90;;;10.90;99.90;;;10.92;84.40;100268.06;4976435;28;20202;-61
2022/05/28 02:28:24;;;;;;;432.35;398.73;;;10.90;99.90;;;10.72;86.05;100260.91;4991893;28;20210;-61
2022/05/28 02:31:01;;;;;;;430.67;397.42;;;10.90;99.90;;;10.72;85.90;100275.88;5004761;28;20324;-61
2022/05/28 02:33:33;;;;;;;429.80;395.70;;;10.90;99.90;;;10.57;87.37;100282.84;4980358;28;20208;-62
2022/05/28 02:36:01;;;;;;;432.25;397.30;;;10.80;99.90;;;10.50;88.49;100298.66;4960883;28;20211;-61
2022/05/28 02:38:30;;;;;;;431.67;397.40;;;10.80;99.90;;;10.06;91.10;100299.13;4975331;28;20220;-61
2022/05/28 02:40:59;;;;;;;427.13;393.35;;;10.60;99.90;;;9.88;92.45;100318.34;4989939;28;20231;-61
2022/05/28 02:43:29;;;;;;;427.65;392.08;;;10.50;99.90;;;10.08;91.15;100328.22;5005195;28;20681;-61
2022/05/28 02:45:59;;;;;;;418.13;383.45;;;10.40;99.90;;;10.09;91.43;100333.50;5008846;28;20200;-61
2022/05/28 02:48:27;;;;;;;426.50;390.52;;;10.30;99.90;;;10.02;91.45;100322.88;4982469;28;20226;-61
2022/05/28 02:51:13;;;;;;;415.85;380.90;;;10.20;99.90;;;9.95;91.71;100335.13;4982372;28;22035;-61
2022/05/28 02:53:41;;;;;;;408.40;373.33;;;10.10;99.90;;;9.91;93.31;100346.53;4976762;28;20209;-61
2022/05/28 02:56:10;;;;;;;410.77;375.65;;;10.10;99.90;;;10.01;92.30;100360.72;4989227;28;20208;-61
2022/05/28 02:58:40;;;;;;;409.23;373.08;;;10.10;99.90;;;9.91;93.47;100362.38;4991260;28;20231;-62
2022/05/28 03:01:27;;;;;;;403.55;368.42;;;10.20;99.90;;;9.86;94.19;100378.19;5004659;28;20587;-61
2022/05/28 03:03:57;;;;;;;395.63;360.70;;;10.20;99.90;;;9.71;94.48;100385.94;4959746;28;20207;-61
2022/05/28 03:06:26;;;;;;;397.33;362.88;;;10.10;99.90;;;9.47;97.57;100405.00;4991265;28;20200;-61
2022/05/28 03:08:54;;;;;;;391.65;357.67;;;10.00;99.90;;;9.55;97.25;100423.59;4995688;28;20211;-61
2022/05/28 03:11:22;;;;;;;395.58;361.08;;;10.00;99.90;;;9.36;97.98;100429.47;4990419;28;20228;-60
2022/05/28 03:13:51;;;;;;;392.55;358.33;;;10.00;99.90;;;9.58;96.25;100429.78;4972487;28;20661;-61
2022/05/28 03:16:19;;;;;;;391.27;356.70;;;9.90;99.90;;;9.51;96.00;100440.25;5005578;28;20215;-61
2022/05/28 03:18:48;;;;;;;386.92;352.13;;;9.80;99.90;;;9.63;96.71;100465.06;4975279;28;20242;-61
2022/05/28 03:21:16;;;;;;;388.90;354.02;;;9.80;99.90;;;9.62;96.28;100471.22;4999175;28;20235;-60
2022/05/28 03:23:47;;;;;;;385.63;351.23;;;9.80;99.90;;;9.55;95.76;100458.78;5008872;28;20196;-61
2022/05/28 03:26:24;;;;;;;378.13;344.45;;;9.80;99.90;;;9.66;94.99;100471.25;4990151;28;20205;-61
2022/05/28 03:28:53;;;;;;;380.77;346.42;;;9.80;99.90;;;9.51;95.38;100462.25;4988595;28;20204;-61
2022/05/28 03:31:21;;;;;;;380.92;346.30;;;9.80;99.90;;;9.53;94.68;100468.44;4972426;28;20232;-61
2022/05/28 03:33:50;;;;;;;375.33;340.73;;;9.70;99.90;;;9.55;94.58;100460.53;5001626;28;20216;-61
2022/05/28 03:36:20;;;;;;;373.05;338.40;;;9.70;99.90;;;9.58;94.68;100474.66;5003384;28;20216;-60
2022/05/28 03:38:48;;;;;;;374.17;338.60;;;9.70;99.90;;;9.52;96.04;100498.34;5007118;28;20235;-61
2022/05/28 03:41:18;;;;;;;369.33;335.35;;;9.70;99.90;;;9.54;95.14;100493.97;5005936;28;20232;-60
2022/05/28 03:43:46;;;;;;;367.48;333.77;;;9.60;99.90;;;9.58;93.39;100479.06;4992652;28;20210;-60
2022/05/28 03:46:27;;;;;;;371.52;336.52;;;9.60;99.90;;;9.58;95.33;100501.06;4989696;28;20223;-61
2022/05/28 03:49:06;;;;;;;362.90;330.15;;;9.70;99.90;;;9.19;98.20;100503.13;4999767;28;20208;-60
2022/05/28 03:51:34;;;;;;;362.92;330.58;;;9.60;99.90;;;8.91;100.00;100526.38;4989444;28;20232;-60
2022/05/28 03:54:02;;;;;;;359.55;327.73;;;9.50;99.90;;;8.56;100.00;100523.13;4958398;28;20271;-60
2022/05/28 03:56:36;;;;;;;361.38;328.17;;;9.30;99.90;;;8.32;100.00;100549.88;4988890;28;20207;-60
2022/05/28 03:59:06;;;;;;;356.73;323.27;;;9.00;99.90;;;8.40;100.00;100581.69;4990134;28;20224;-60
2022/05/28 04:01:35;;;;;;;340.35;307.10;;;8.90;99.90;;;8.43;100.00;100597.53;5023445;28;20219;-60
2022/05/28 04:04:04;;;;;;;345.30;310.17;;;8.90;99.90;;;8.40;100.00;100607.13;4974811;28;20196;-60
2022/05/28 04:06:36;;;;;;;345.20;310.70;;;8.90;99.90;;;8.38;100.00;100622.91;5018268;28;20204;-60
2022/05/28 04:09:06;;;;;;;343.95;308.58;;;8.90;99.90;;;8.45;100.00;100639.75;5004122;28;20200;-61
2022/05/28 04:11:35;;;;;;;347.45;312.10;;;8.90;99.90;;;8.38;100.00;100645.75;5004827;28;20220;-61
2022/05/28 04:14:05;;;;;;;337.55;303.48;;;8.80;99.90;;;8.43;100.00;100652.00;4974070;28;20690;-60
2022/05/28 04:16:33;;;;;;;330.20;296.38;;;8.80;99.90;;;8.37;100.00;100660.66;4973894;28;20205;-61
2022/05/28 04:19:02;;;;;;;338.85;304.65;;;8.90;99.90;;;8.54;100.00;100680.34;5018217;28;20219;-61
2022/05/28 04:21:30;;;;;;;330.75;297.92;;;8.80;99.90;;;8.36;100.00;100674.69;4990948;28;20220;-60
2022/05/28 04:23:58;;;;;;;332.60;298.25;;;8.80;99.90;;;8.34;100.00;100685.22;4991837;28;20212;-60
2022/05/28 04:26:26;;;;;;;326.77;292.75;;;8.80;99.90;;;8.47;100.00;100706.56;5018457;28;20200;-60
2022/05/28 04:28:54;;;;;;;327.58;293.48;;;8.80;99.90;;;8.64;100.00;100744.72;4988919;28;20212;-60
2022/05/28 04:31:22;;;;;;;328.52;294.92;;;8.90;99.90;;;8.76;100.00;100754.63;4976128;28;20216;-61
2022/05/28 04:33:50;;;;;;;327.10;292.73;;;9.00;99.90;;;8.95;100.00;100773.50;4980816;28;20212;-60
2022/05/28 04:36:18;;;;;;;332.38;297.10;;;9.10;99.90;;;9.02;100.00;100779.81;4960606;28;20202;-60
2022/05/28 04:38:46;;;;;;;336.67;300.65;;;9.20;99.90;;;9.14;100.00;100772.19;5007335;28;20209;-60
2022/05/28 04:41:15;;;;;;;330.95;296.63;;;9.20;99.90;;;9.19;100.00;100770.53;4978092;28;20240;-60
2022/05/28 04:43:43;;;;;;;337.48;302.02;;;9.30;99.90;;;9.25;100.00;100780.31;4990542;28;20210;-60
2022/05/28 04:46:11;;;;;;;343.42;306.40;;;9.30;99.90;;;9.23;100.00;100788.19;5009727;28;20200;-60
2022/05/28 04:48:40;;;;;;;345.90;309.23;;;9.40;99.90;;;9.37;100.00;100801.66;4981273;28;20590;-60
2022/05/28 04:51:08;;;;;;;345.30;310.90;;;9.50;99.90;;;9.37;100.00;100825.41;4979055;28;20232;-60
2022/05/28 04:53:36;;;;;;;345.98;311.33;;;9.50;99.90;;;9.40;100.00;100838.69;5008303;28;20204;-60
2022/05/28 04:56:04;;;;;;;347.58;313.17;;;9.50;99.90;;;9.57;100.00;100868.94;5018284;28;20215;-60
2022/05/28 04:58:32;;;;;;;350.00;314.40;;;9.60;99.90;;;9.73;100.00;100867.50;5004133;28;20201;-60
2022/05/28 05:01:00;;;;;;;351.05;315.58;;;9.70;99.90;;;9.83;100.00;100861.53;5021495;28;20227;-60
2022/05/28 05:03:28;;;;;;;360.88;324.90;;;9.90;99.90;;;9.91;100.00;100865.19;4994517;28;20192;-60
2022/05/28 05:05:56;;;;;;;363.27;327.08;;;9.80;99.90;;;10.03;100.00;100868.94;5011152;28;20203;-60
2022/05/28 05:08:24;;;;;;;360.80;324.50;;;9.90;99.90;;;10.09;100.00;100871.69;4973293;28;20212;-61
2022/05/28 05:10:52;;;;;;;360.10;324.52;;;10.10;99.90;;;10.25;100.00;100865.81;4989481;28;20719;-60
2022/05/28 05:13:20;;;;;;;361.80;326.63;;;10.20;99.90;;;10.39;99.63;100866.94;4973519;28;20214;-60
2022/05/28 05:15:48;;;;;;;377.13;339.30;;;10.20;99.90;;;10.44;99.75;100872.34;4937630;28;20215;-60
2022/05/28 05:18:16;;;;;;;379.13;341.58;;;10.30;99.90;;;10.52;98.27;100866.31;5004721;28;20226;-61
2022/05/28 05:20:45;;;;;;;399.67;361.70;;;10.30;99.90;;;10.62;97.00;100846.19;4986669;28;20236;-61
2022/05/28 05:23:13;;;;;;;392.15;353.75;;;10.40;99.90;;;10.77;98.27;100872.00;5002135;28;20204;-61
2022/05/28 05:25:41;;;;;;;547.08;501.73;;;10.50;99.90;;;10.99;97.60;100895.25;4958807;28;20205;-61
2022/05/28 05:28:17;;;;;;;446.65;409.33;;;10.50;99.90;;;11.07;95.67;100896.25;5003543;28;20196;-61
2022/05/28 05:30:56;;;;;;;385.05;349.35;;;10.50;99.90;;;11.28;95.71;100903.59;5000070;28;20220;-61
2022/05/28 05:33:24;;;;;;;391.70;355.38;;;10.80;99.90;;;11.47;94.23;100895.03;5005476;28;20211;-61
2022/05/28 05:35:52;;;;;;;409.80;372.15;;;11.00;99.90;;;11.68;92.93;100891.75;4961327;28;20207;-61
2022/05/28 05:38:19;;;;;;;405.33;368.30;;;11.10;99.90;;;11.77;90.69;100860.13;5006925;28;20212;-61
2022/05/28 05:40:52;;;;;;;416.05;378.90;;;11.10;99.90;;;11.79;90.52;100846.91;4975919;28;20235;-61
2022/05/28 05:43:20;;;;;;;415.25;376.23;;;11.20;99.90;;;11.81;90.57;100839.84;4993623;28;20212;-61
2022/05/28 05:45:56;;;;;;;424.02;384.60;;;11.30;99.90;;;11.99;89.98;100852.41;4961059;28;20216;-61
2022/05/28 05:48:24;;;;;;;425.65;386.50;;;11.30;99.90;;;12.09;90.40;100857.81;4996362;28;20215;-61
2022/05/28 05:50:52;;;;;;;437.65;397.70;;;11.50;99.90;;;12.15;90.60;100849.91;4979424;28;20258;-61
2022/05/28 05:53:21;;;;;;;448.98;409.73;;;11.60;99.90;;;12.29;89.71;100860.63;5034163;28;20212;-61
2022/05/28 05:55:49;;;;;;;449.42;411.55;;;11.70;99.90;;;12.53;89.12;100857.28;4986621;28;20215;-61
2022/05/28 05:58:17;;;;;;;446.77;407.35;;;11.80;99.90;;;12.61;87.26;100844.97;4989401;28;20221;-61
2022/05/28 06:00:45;;;;;;;516.20;472.63;;;12.00;99.90;;;12.63;87.00;100829.97;4997420;28;20231;-61
2022/05/28 06:03:18;;;;;;;486.80;444.60;;;12.10;99.90;;;12.92;84.90;100814.22;4996415;28;20207;-61
2022/05/28 06:05:47;;;;;;;474.77;430.95;;;12.20;99.90;;;12.99;84.98;100820.44;5023926;28;20208;-61
2022/05/28 06:08:15;;;;;;;481.67;440.17;;;12.30;99.90;;;13.17;82.51;100798.47;4992668;28;20199;-61
2022/05/28 06:10:44;;;;;;;497.48;454.58;;;12.50;99.90;;;13.35;81.49;100777.28;4991690;28;20227;-61
2022/05/28 06:13:12;;;;;;;508.95;465.73;;;12.70;99.90;;;13.38;81.49;100764.00;4981919;28;20222;-61
2022/05/28 06:15:40;;;;;;;517.85;474.45;;;12.70;99.90;;;13.59;80.73;100785.31;4986943;28;20464;-61
2022/05/28 06:18:08;;;;;;;511.70;470.63;;;12.90;99.90;;;13.49;78.57;100718.88;4999218;28;20589;-62
2022/05/28 06:20:37;;;;;;;539.97;497.52;;;;;;;13.80;76.26;100703.84;5002703;28;20232;-61
2022/05/28 06:23:04;;;;;;;541.65;499.67;;;13.30;99.90;;;13.85;74.94;100665.75;4974829;28;20200;-61
2022/05/28 06:25:32;;;;;;;565.60;521.67;;;13.40;99.90;;;14.16;74.13;100669.25;4988584;28;20220;-61
2022/05/28 06:28:00;;;;;;;566.60;524.60;;;13.60;99.90;;;14.31;73.06;100631.13;4970770;28;20215;-61
2022/05/28 06:30:29;;;;;;;575.58;532.65;;;13.70;99.90;;;14.13;71.30;100577.94;5010024;28;20223;-61
2022/05/28 06:32:56;;;;;;;603.80;567.13;;;13.80;99.90;;;14.32;71.08;100599.19;4976529;28;20211;-61
2022/05/28 06:35:24;;;;;;;585.97;544.28;;;13.90;99.90;;;14.63;71.83;100621.25;5003977;28;20208;-61
2022/05/28 06:37:52;;;;;;;600.78;556.97;;;14.10;99.90;;;14.61;71.46;100585.78;5034078;28;20219;-61
2022/05/28 06:40:20;;;;;;;606.55;563.05;;;14.20;99.90;;;14.64;72.72;100600.84;5006379;28;20227;-61
2022/05/28 06:42:50;;;;;;;601.35;559.00;;;14.30;99.90;;;14.63;72.03;100589.31;4990176;28;20223;-61
2022/05/28 06:45:19;;;;;;;614.20;572.80;;;14.40;99.90;;;14.62;71.69;100570.69;5013021;28;20207;-62
2022/05/28 06:47:47;;;;;;;629.53;586.03;;;14.50;99.90;;;14.67;71.73;100575.09;5021246;28;20204;-62
2022/05/28 06:53:09;;;;;;;653.80;610.22;;;14.70;99.90;;;14.85;71.78;100574.09;4986343;28;20211;-61
2022/05/28 06:55:38;;;;;;;656.75;614.17;;;14.70;99.90;;;14.48;70.82;100492.72;4975533;28;20205;-61
2022/05/28 06:58:07;;;;;;;683.45;638.95;;;14.70;99.90;;;14.75;70.52;100519.16;4976895;28;20196;-62
2022/05/28 07:00:36;;;;;;;680.92;637.72;;;14.70;99.90;;;14.80;71.19;100528.00;4992724;28;20224;-61
2022/05/28 07:03:05;;;;;;;686.10;643.15;;;14.80;99.90;;;14.84;71.27;100532.41;4994242;28;20204;-62
2022/05/28 07:05:33;;;;;;;681.17;638.55;;;14.70;99.90;;;14.52;71.00;100476.72;4974821;28;20218;-61
2022/05/28 07:08:08;;;;;;;692.00;649.45;;;14.70;99.90;;;14.58;70.85;100475.78;4978289;28;20214;-62
2022/05/28 07:10:41;;;;;;;703.05;661.60;;;14.70;99.90;;;14.92;71.14;100514.59;4994508;28;20224;-61
2022/05/28 07:13:10;;;;;;;714.40;671.92;;;14.90;99.90;;;15.11;71.07;100528.66;4983965;28;20211;-61
2022/05/28 07:15:39;;;;;;;724.75;681.58;;;15.10;99.90;;;14.97;70.81;100509.22;5008795;28;20219;-62
2022/05/28 07:18:08;;;;;;;724.80;683.28;;;15.30;99.90;;;15.21;72.17;100550.78;4990006;28;20208;-62
2022/05/28 07:20:37;;;;;;;734.40;690.72;;;15.50;99.90;;;14.90;70.78;100487.09;4977180;28;20232;-61
2022/05/28 07:23:18;;;;;;;741.47;696.65;;;15.50;99.90;;;15.51;71.21;100555.84;4991847;28;20215;-62
2022/05/28 07:25:47;;;;;;;736.67;694.63;;;15.60;99.90;;;15.37;70.85;100523.97;4985747;28;20203;-62
2022/05/28 07:28:28;;;;;;;747.97;704.63;;;15.60;99.90;;;15.16;71.57;100496.66;5003388;28;20215;-62
2022/05/28 07:31:03;;;;;;;755.83;712.30;;;15.50;99.90;;;15.31;71.99;100523.16;5012953;28;20228;-62
2022/05/28 07:33:39;;;;;;;756.47;714.38;;;15.70;99.90;;;15.29;72.33;100520.50;4951421;28;20234;-62
2022/05/28 07:36:11;;;;;;;762.55;719.00;;;15.50;99.90;;;15.65;72.44;100563.78;5006029;28;20208;-61
2022/05/28 07:38:41;;;;;;;761.58;719.35;;;15.60;99.90;;;15.98;71.26;100559.88;5007332;28;20580;-61
2022/05/28 07:41:13;;;;;;;768.75;726.38;;;15.70;99.90;;;16.46;70.21;100558.41;4990243;28;20239;-62
2022/05/28 07:43:43;;;;;;;778.50;733.45;;;16.30;99.90;;;16.21;69.64;100504.44;4975935;28;20660;-62
2022/05/28 07:46:17;;;;;;;788.33;743.50;;;16.30;99.90;;;16.37;70.68;100526.47;4992056;28;20199;-62
2022/05/28 07:48:47;;;;;;;790.88;745.05;;;16.20;99.90;;;16.10;69.26;100462.81;4978725;28;20208;-62
2022/05/28 07:51:15;;;;;;;795.50;750.75;;;16.30;99.90;;;16.41;70.05;100500.63;4960173;28;20236;-61
2022/05/28 07:53:44;;;;;;;796.30;751.83;;;16.40;99.90;;;16.35;69.43;100471.38;4966913;28;20219;-62
2022/05/28 07:56:12;;;;;;;796.00;751.53;;;16.50;99.90;;;16.54;69.17;100483.53;5024696;28;20204;-62
2022/05/28 07:58:42;;;;;;;791.35;747.17;;;16.70;99.90;;;16.73;69.94;100498.41;5002318;28;20199;-64
2022/05/28 08:01:32;;;;;;;792.33;749.03;;;16.70;99.90;;;17.10;68.84;100506.75;4982140;28;20231;-63
2022/05/28 08:04:08;;;;;;;791.03;749.03;;;16.80;99.90;;;17.00;67.83;100448.16;4966063;28;20218;-63
2022/05/28 08:06:37;;;;;;;812.92;767.90;;;17.30;99.90;;;17.26;68.00;100462.84;4962805;28;20196;-63
2022/05/28 08:09:08;;;;;;;825.25;780.75;;;17.40;99.90;;;17.24;67.29;100426.34;4969097;28;20215;-63
2022/05/28 08:11:36;;;;;;;837.45;791.83;;;17.50;99.90;;;17.21;66.17;100381.84;4976164;28;20224;-63
2022/05/28 08:14:04;;;;;;;810.08;767.72;;;17.80;99.90;;;17.00;65.88;100330.63;4983718;28;20680;-63
2022/05/28 08:16:34;;;;;;;817.80;774.55;;;17.80;99.90;;;16.94;65.92;100316.47;4965399;28;20208;-63
2022/05/28 08:19:02;;;;;;;817.00;773.70;;;17.60;99.90;;;16.89;66.71;100304.94;4983363;28;20207;-63
2022/05/28 08:24:33;;;;;;;807.35;765.70;;;17.70;99.90;;;16.78;64.61;100242.84;4960274;28;20205;-63
2022/05/28 08:27:01;;;;;;;818.40;776.05;;;17.50;99.90;;;16.82;63.59;100217.84;4975469;28;20206;-64
2022/05/28 08:29:29;;;;;;;808.45;765.05;;;17.50;99.90;;;17.60;64.74;100309.78;4981673;28;20222;-64
2022/05/28 08:31:57;;;;;;;814.17;771.50;;;17.50;99.90;;;17.90;64.62;100329.66;4945224;28;20204;-63
2022/05/28 08:34:25;;;;;;;815.65;771.97;;;17.90;99.90;;;18.26;63.69;100335.09;4961616;28;20219;-64
2022/05/28 08:36:53;;;;;;;816.88;774.50;;;18.20;99.90;;;18.14;64.10;100310.34;5004313;28;20223;-64
2022/05/28 08:39:21;;;;;;;810.58;766.65;;;18.20;99.90;;;17.88;65.65;100286.00;4989147;28;20215;-63
2022/05/28 08:41:57;;;;;;;802.30;758.83;;;18.40;99.90;;;17.85;65.96;100291.41;4976998;28;20743;-63
2022/05/28 08:44:27;;;;;;;809.38;766.97;;;18.40;99.90;;;17.64;65.49;100241.06;4963110;28;20207;-64
2022/05/28 08:47:14;;;;;;;800.40;758.97;;;18.20;99.90;;;17.69;64.08;100221.34;4978378;28;20195;-64
2022/05/28 08:49:45;;;;;;;777.65;737.33;;;18.10;99.90;;;17.51;62.96;100168.28;4996285;28;20224;-65
2022/05/28 08:52:30;;;;;;;764.40;723.00;;;18.20;99.90;;;17.73;62.84;100174.03;4954453;28;20215;-63
2022/05/28 08:55:13;;;;;;;801.08;758.58;;;18.20;99.90;;;17.40;62.72;100123.09;4986518;28;20200;-63
2022/05/28 08:58:06;;;;;;;737.25;698.97;;;18.30;99.90;;;17.28;62.88;100097.53;4978734;28;20216;-64
2022/05/28 09:00:56;;;;;;;767.17;727.83;;;18.40;99.90;;;17.05;64.02;100069.59;5001957;28;20224;-64
2022/05/28 09:03:45;;;;;;;785.97;745.65;;;17.90;99.90;;;17.05;62.94;100056.22;4981501;28;20215;-64
2022/05/28 09:06:25;;;;;;;819.88;776.83;;;17.60;99.90;;;17.94;62.08;100148.53;4999728;28;20231;-64
2022/05/28 09:08:56;;;;;;;845.38;800.22;;;17.70;99.90;;;17.73;60.33;100062.56;4975145;28;20203;-64
2022/05/28 09:11:45;;;;;;;788.53;746.80;;;17.90;99.90;;;18.66;60.97;100203.78;4968474;28;20227;-63
2022/05/28 09:14:48;;;;;;;767.05;726.95;;;18.60;99.90;;;18.15;60.02;100083.75;5006768;28;20200;-64
2022/05/28 09:17:42;;;;;;;777.75;736.60;;;18.60;99.90;;;17.94;60.33;100041.53;4975348;28;20216;-64
2022/05/28 09:20:29;;;;;;;757.28;717.08;;;18.80;99.90;;;17.50;60.01;99953.53;4956776;28;20230;-63
2022/05/28 09:22:58;;;;;;;778.30;736.90;;;18.60;99.90;;;17.69;60.75;99994.03;4973443;28;20715;-63
2022/05/28 09:25:34;;;;;;;768.17;727.97;;;18.50;99.90;;;17.34;60.50;99927.25;5008332;28;20205;-64
2022/05/28 09:28:14;;;;;;;734.75;696.70;;;18.30;99.90;;;17.56;60.04;99960.50;5011825;28;20203;-64
2022/05/28 09:31:00;;;;;;;751.70;713.15;;;18.30;99.90;;;17.70;60.40;99985.09;5022291;28;20242;-63
2022/05/28 09:33:47;;;;;;;734.67;697.30;;;18.30;99.90;;;17.90;60.35;100020.19;5012209;28;20203;-64
2022/05/28 09:37:09;;;;;;;740.45;701.63;;;18.40;99.90;;;17.66;60.57;99951.34;4979046;28;20212;-64
2022/05/28 09:40:19;;;;;;;788.15;746.10;;;18.70;99.90;;;17.71;61.15;99973.50;4967242;28;20240;-64
2022/05/28 09:43:39;;;;;;;794.30;752.97;;;18.20;99.90;;;17.73;60.89;99963.63;4926573;28;20230;-64
2022/05/28 09:46:39;;;;;;;817.45;773.20;;;18.30;99.90;;;18.27;60.59;100023.69;4980582;28;20216;-64
2022/05/28 09:49:24;;;;;;;820.63;777.35;;;18.30;99.90;;;17.82;60.29;99933.94;4986854;28;20212;-64
2022/05/28 09:52:06;;;;;;;834.67;790.67;;;18.30;99.90;;;17.87;60.97;99948.06;4986860;28;20196;-64
2022/05/28 09:54:36;;;;;;;832.17;786.78;;;18.30;99.90;;;17.92;60.62;99950.59;4956347;28;20203;-63
2022/05/28 09:57:11;;;;;;;833.42;788.72;;;18.40;99.90;;;18.38;61.71;100027.78;4957722;28;20683;-63
2022/05/28 09:59:55;;;;;;;831.78;787.58;;;18.60;99.90;;;18.00;60.92;99951.25;4959953;28;20227;-64
2022/05/28 10:02:41;;;;;;;847.70;802.83;;;18.70;99.90;;;17.72;62.70;99926.22;4969991;28;20228;-63
2022/05/28 10:05:29;;;;;;;856.78;811.08;;;18.60;99.90;;;17.63;64.42;99953.19;5003645;28;20263;-63
2022/05/28 10:08:29;;;;;;;865.55;820.67;;;18.30;99.90;;;17.37;64.54;99941.41;4977655;28;20207;-63
2022/05/28 10:11:28;;;;;;;879.92;831.92;;;18.00;99.90;;;17.17;64.07;99899.19;4979888;28;20220;-64
2022/05/28 10:13:57;;;;;;;880.10;832.88;;;17.70;99.90;;;17.48;64.99;99957.16;4971098;28;20223;-64
2022/05/28 10:16:38;;;;;;;879.10;832.60;;;17.80;99.90;;;18.09;64.78;100051.81;4958862;28;20211;-64
2022/05/28 10:19:30;;;;;;;875.10;828.97;;;18.20;99.90;;;18.69;64.00;100093.88;5003573;28;20211;-63
2022/05/28 10:22:03;;;;;;;878.88;831.95;;;18.70;99.90;;;19.32;64.82;100170.56;4995047;28;20261;-64
2022/05/28 10:24:57;;;;;;;889.40;841.50;;;19.10;99.90;;;19.05;63.41;100097.22;5011857;28;20229;-65
2022/05/28 10:27:34;;;;;;;809.70;766.58;;;19.30;99.90;;;18.84;62.63;100043.38;4991422;28;20205;-64